Terminal Aerodrome Forecast
Issued by NWS Northern Indiana

Home | Current Version | Previous Version | Graphics & Text | Print | Product List | Glossary On
Versions: 1 2 3 4 5 6 7 8 9 10 11 12 13
000
FTUS43 KIWX 242320
TAFFWA
TAF
KFWA 242320Z 2500/2524 20015KT P6SM SCT200 WS020/23050KT
     FM250800 26009KT P6SM BKN120
     FM251100 28008KT P6SM BKN025
     FM251800 30010G20KT P6SM BKN035=

USA.gov is the U.S. government's official web portal to all federal, state and local government web resources and services.